sensor_id;sensor_type;location;lat;lon;timestamp;P1;durP1;ratioP1;P2;durP2;ratioP2
69327;SDS011;56472;52.114;5.492;2023-03-23T00:01:21;10.25;;;4.63;;
69327;SDS011;56472;52.114;5.492;2023-03-23T00:03:50;5.35;;;4.00;;
69327;SDS011;56472;52.114;5.492;2023-03-23T00:06:17;8.32;;;4.35;;
69327;SDS011;56472;52.114;5.492;2023-03-23T00:08:49;8.20;;;4.35;;
69327;SDS011;56472;52.114;5.492;2023-03-23T00:11:21;8.90;;;4.90;;
69327;SDS011;56472;52.114;5.492;2023-03-23T00:13:49;5.53;;;4.18;;
69327;SDS011;56472;52.114;5.492;2023-03-23T00:16:16;8.32;;;4.53;;
69327;SDS011;56472;52.114;5.492;2023-03-23T00:18:56;4.63;;;3.78;;
69327;SDS011;56472;52.114;5.492;2023-03-23T00:21:34;8.32;;;4.18;;
69327;SDS011;56472;52.114;5.492;2023-03-23T00:24:03;15.25;;;4.47;;
69327;SDS011;56472;52.114;5.492;2023-03-23T00:26:35;8.50;;;4.30;;
69327;SDS011;56472;52.114;5.492;2023-03-23T00:29:05;7.47;;;3.83;;
69327;SDS011;56472;52.114;5.492;2023-03-23T00:31:33;7.68;;;3.80;;
69327;SDS011;56472;52.114;5.492;2023-03-23T00:34:02;6.75;;;3.67;;
69327;SDS011;56472;52.114;5.492;2023-03-23T00:36:32;6.15;;;4.10;;
69327;SDS011;56472;52.114;5.492;2023-03-23T00:39:02;8.95;;;3.80;;
69327;SDS011;56472;52.114;5.492;2023-03-23T00:41:29;8.13;;;4.07;;
69327;SDS011;56472;52.114;5.492;2023-03-23T00:43:56;10.02;;;4.05;;
69327;SDS011;56472;52.114;5.492;2023-03-23T00:46:25;10.00;;;3.22;;
69327;SDS011;56472;52.114;5.492;2023-03-23T00:48:53;9.32;;;3.60;;
69327;SDS011;56472;52.114;5.492;2023-03-23T00:51:22;9.18;;;3.22;;
69327;SDS011;56472;52.114;5.492;2023-03-23T00:53:49;8.10;;;3.55;;
69327;SDS011;56472;52.114;5.492;2023-03-23T00:56:16;7.68;;;4.32;;
69327;SDS011;56472;52.114;5.492;2023-03-23T00:58:41;11.13;;;3.42;;
69327;SDS011;56472;52.114;5.492;2023-03-23T01:01:08;6.13;;;3.45;;
69327;SDS011;56472;52.114;5.492;2023-03-23T01:03:34;7.60;;;3.45;;
69327;SDS011;56472;52.114;5.492;2023-03-23T01:06:05;5.95;;;3.75;;
69327;SDS011;56472;52.114;5.492;2023-03-23T01:08:33;11.00;;;3.30;;
69327;SDS011;56472;52.114;5.492;2023-03-23T01:11:03;5.88;;;2.75;;
69327;SDS011;56472;52.114;5.492;2023-03-23T01:13:30;4.97;;;3.20;;
69327;SDS011;56472;52.114;5.492;2023-03-23T01:15:56;3.67;;;2.95;;
69327;SDS011;56472;52.114;5.492;2023-03-23T01:18:22;4.78;;;3.30;;
69327;SDS011;56472;52.114;5.492;2023-03-23T01:20:48;8.98;;;3.72;;
69327;SDS011;56472;52.114;5.492;2023-03-23T01:23:14;9.82;;;3.25;;
69327;SDS011;56472;52.114;5.492;2023-03-23T01:25:40;6.18;;;3.30;;
69327;SDS011;56472;52.114;5.492;2023-03-23T01:28:06;7.63;;;3.03;;
69327;SDS011;56472;52.114;5.492;2023-03-23T01:30:32;5.22;;;2.90;;
69327;SDS011;56472;52.114;5.492;2023-03-23T01:32:58;6.63;;;2.90;;
69327;SDS011;56472;52.114;5.492;2023-03-23T01:35:23;7.57;;;3.10;;
69327;SDS011;56472;52.114;5.492;2023-03-23T01:37:51;5.07;;;2.83;;
69327;SDS011;56472;52.114;5.492;2023-03-23T01:40:17;5.40;;;2.72;;
69327;SDS011;56472;52.114;5.492;2023-03-23T01:42:43;5.10;;;2.85;;
69327;SDS011;56472;52.114;5.492;2023-03-23T01:45:27;5.15;;;2.70;;
69327;SDS011;56472;52.114;5.492;2023-03-23T01:48:24;5.38;;;3.15;;
69327;SDS011;56472;52.114;5.492;2023-03-23T01:50:54;4.35;;;2.97;;
69327;SDS011;56472;52.114;5.492;2023-03-23T01:53:24;3.05;;;2.70;;
69327;SDS011;56472;52.114;5.492;2023-03-23T01:55:55;6.03;;;2.90;;
69327;SDS011;56472;52.114;5.492;2023-03-23T01:58:25;4.10;;;3.00;;
69327;SDS011;56472;52.114;5.492;2023-03-23T02:00:55;6.43;;;3.05;;
69327;SDS011;56472;52.114;5.492;2023-03-23T02:03:27;4.97;;;3.17;;
69327;SDS011;56472;52.114;5.492;2023-03-23T02:05:56;3.50;;;2.60;;
69327;SDS011;56472;52.114;5.492;2023-03-23T02:08:54;3.72;;;3.20;;
69327;SDS011;56472;52.114;5.492;2023-03-23T02:11:22;7.18;;;3.13;;
69327;SDS011;56472;52.114;5.492;2023-03-23T02:13:48;5.38;;;2.92;;
69327;SDS011;56472;52.114;5.492;2023-03-23T02:19:23;4.90;;;3.30;;
69327;SDS011;56472;52.114;5.492;2023-03-23T02:38:54;5.88;;;3.60;;
69327;SDS011;56472;52.114;5.492;2023-03-23T02:41:27;4.70;;;3.50;;
69327;SDS011;56472;52.114;5.492;2023-03-23T02:43:56;4.32;;;3.65;;
69327;SDS011;56472;52.114;5.492;2023-03-23T02:46:22;6.30;;;3.75;;
69327;SDS011;56472;52.114;5.492;2023-03-23T02:48:50;3.80;;;3.40;;
69327;SDS011;56472;52.114;5.492;2023-03-23T02:51:19;5.78;;;3.65;;
69327;SDS011;56472;52.114;5.492;2023-03-23T02:53:46;5.82;;;3.72;;
69327;SDS011;56472;52.114;5.492;2023-03-23T02:56:16;7.43;;;3.72;;
69327;SDS011;56472;52.114;5.492;2023-03-23T02:58:43;8.38;;;3.90;;
69327;SDS011;56472;52.114;5.492;2023-03-23T03:01:16;3.67;;;3.40;;
69327;SDS011;56472;52.114;5.492;2023-03-23T03:03:58;5.65;;;3.90;;
69327;SDS011;56472;52.114;5.492;2023-03-23T03:06:44;5.57;;;3.88;;
69327;SDS011;56472;52.114;5.492;2023-03-23T03:12:11;6.85;;;3.90;;
69327;SDS011;56472;52.114;5.492;2023-03-23T03:14:45;6.65;;;4.15;;
69327;SDS011;56472;52.114;5.492;2023-03-23T03:17:21;4.78;;;3.42;;
69327;SDS011;56472;52.114;5.492;2023-03-23T03:19:51;6.47;;;3.50;;
69327;SDS011;56472;52.114;5.492;2023-03-23T03:22:22;7.18;;;3.55;;
69327;SDS011;56472;52.114;5.492;2023-03-23T03:24:55;7.90;;;3.70;;
69327;SDS011;56472;52.114;5.492;2023-03-23T03:27:23;5.10;;;3.40;;
69327;SDS011;56472;52.114;5.492;2023-03-23T03:30:02;3.75;;;3.13;;
69327;SDS011;56472;52.114;5.492;2023-03-23T03:32:34;5.50;;;3.08;;
69327;SDS011;56472;52.114;5.492;2023-03-23T03:35:05;7.50;;;3.47;;
69327;SDS011;56472;52.114;5.492;2023-03-23T03:37:35;10.05;;;3.05;;
69327;SDS011;56472;52.114;5.492;2023-03-23T03:40:04;8.45;;;3.35;;
69327;SDS011;56472;52.114;5.492;2023-03-23T03:42:37;8.80;;;2.97;;
69327;SDS011;56472;52.114;5.492;2023-03-23T03:45:08;7.55;;;2.72;;
69327;SDS011;56472;52.114;5.492;2023-03-23T03:47:35;4.20;;;2.70;;
69327;SDS011;56472;52.114;5.492;2023-03-23T03:50:02;6.10;;;3.10;;
69327;SDS011;56472;52.114;5.492;2023-03-23T03:52:28;4.55;;;2.80;;
69327;SDS011;56472;52.114;5.492;2023-03-23T03:54:54;6.40;;;2.70;;
69327;SDS011;56472;52.114;5.492;2023-03-23T03:57:21;9.02;;;2.53;;
69327;SDS011;56472;52.114;5.492;2023-03-23T04:00:15;6.70;;;3.00;;
69327;SDS011;56472;52.114;5.492;2023-03-23T04:02:45;5.55;;;2.70;;
69327;SDS011;56472;52.114;5.492;2023-03-23T04:05:17;3.60;;;2.60;;
69327;SDS011;56472;52.114;5.492;2023-03-23T04:07:46;5.45;;;2.55;;
69327;SDS011;56472;52.114;5.492;2023-03-23T04:10:18;5.35;;;2.45;;
69327;SDS011;56472;52.114;5.492;2023-03-23T04:12:48;5.80;;;2.50;;
69327;SDS011;56472;52.114;5.492;2023-03-23T04:15:33;6.68;;;2.85;;
69327;SDS011;56472;52.114;5.492;2023-03-23T04:17:59;5.82;;;2.88;;
69327;SDS011;56472;52.114;5.492;2023-03-23T04:20:26;9.85;;;3.13;;
69327;SDS011;56472;52.114;5.492;2023-03-23T04:22:52;6.22;;;2.80;;
69327;SDS011;56472;52.114;5.492;2023-03-23T04:25:21;4.85;;;2.45;;
69327;SDS011;56472;52.114;5.492;2023-03-23T04:27:51;6.13;;;2.47;;
69327;SDS011;56472;52.114;5.492;2023-03-23T04:30:25;4.45;;;2.40;;
69327;SDS011;56472;52.114;5.492;2023-03-23T04:33:07;5.07;;;2.35;;
69327;SDS011;56472;52.114;5.492;2023-03-23T04:35:33;2.33;;;2.10;;
69327;SDS011;56472;52.114;5.492;2023-03-23T04:38:14;3.83;;;2.20;;
69327;SDS011;56472;52.114;5.492;2023-03-23T04:40:43;5.10;;;2.05;;
69327;SDS011;56472;52.114;5.492;2023-03-23T04:43:22;4.03;;;1.98;;
69327;SDS011;56472;52.114;5.492;2023-03-23T04:46:09;5.63;;;2.03;;
69327;SDS011;56472;52.114;5.492;2023-03-23T04:48:36;7.85;;;2.17;;
69327;SDS011;56472;52.114;5.492;2023-03-23T04:51:16;10.40;;;2.17;;
69327;SDS011;56472;52.114;5.492;2023-03-23T04:53:45;4.18;;;2.17;;
69327;SDS011;56472;52.114;5.492;2023-03-23T04:56:11;5.55;;;1.80;;
69327;SDS011;56472;52.114;5.492;2023-03-23T04:58:43;6.57;;;2.10;;
69327;SDS011;56472;52.114;5.492;2023-03-23T05:01:24;6.30;;;2.55;;
69327;SDS011;56472;52.114;5.492;2023-03-23T05:04:14;4.95;;;1.70;;
69327;SDS011;56472;52.114;5.492;2023-03-23T05:06:45;7.95;;;2.25;;
69327;SDS011;56472;52.114;5.492;2023-03-23T05:09:18;8.98;;;2.00;;
69327;SDS011;56472;52.114;5.492;2023-03-23T05:11:46;8.98;;;1.75;;
69327;SDS011;56472;52.114;5.492;2023-03-23T05:14:12;24.77;;;3.17;;
69327;SDS011;56472;52.114;5.492;2023-03-23T05:16:39;5.15;;;2.28;;
69327;SDS011;56472;52.114;5.492;2023-03-23T05:19:06;8.02;;;2.25;;
69327;SDS011;56472;52.114;5.492;2023-03-23T05:21:33;13.15;;;2.00;;
69327;SDS011;56472;52.114;5.492;2023-03-23T05:23:59;7.25;;;2.10;;
69327;SDS011;56472;52.114;5.492;2023-03-23T05:26:27;16.67;;;2.35;;
69327;SDS011;56472;52.114;5.492;2023-03-23T05:28:59;11.25;;;2.78;;
69327;SDS011;56472;52.114;5.492;2023-03-23T05:31:37;8.05;;;1.50;;
69327;SDS011;56472;52.114;5.492;2023-03-23T05:34:03;10.07;;;2.13;;
69327;SDS011;56472;52.114;5.492;2023-03-23T05:36:43;6.78;;;2.05;;
69327;SDS011;56472;52.114;5.492;2023-03-23T05:39:14;11.50;;;2.30;;
69327;SDS011;56472;52.114;5.492;2023-03-23T05:42:06;15.60;;;3.22;;
69327;SDS011;56472;52.114;5.492;2023-03-23T05:44:55;10.32;;;1.98;;
69327;SDS011;56472;52.114;5.492;2023-03-23T05:47:21;9.05;;;2.00;;
69327;SDS011;56472;52.114;5.492;2023-03-23T05:49:53;16.58;;;2.53;;
69327;SDS011;56472;52.114;5.492;2023-03-23T05:52:21;10.85;;;2.05;;
69327;SDS011;56472;52.114;5.492;2023-03-23T05:54:49;12.18;;;2.40;;
69327;SDS011;56472;52.114;5.492;2023-03-23T05:57:16;11.48;;;1.90;;
69327;SDS011;56472;52.114;5.492;2023-03-23T05:59:47;11.50;;;1.98;;
69327;SDS011;56472;52.114;5.492;2023-03-23T06:02:19;9.57;;;2.00;;
69327;SDS011;56472;52.114;5.492;2023-03-23T06:04:45;9.98;;;2.67;;
69327;SDS011;56472;52.114;5.492;2023-03-23T06:07:23;8.73;;;2.28;;
69327;SDS011;56472;52.114;5.492;2023-03-23T06:09:58;10.63;;;2.33;;
69327;SDS011;56472;52.114;5.492;2023-03-23T06:12:25;7.85;;;2.10;;
69327;SDS011;56472;52.114;5.492;2023-03-23T06:15:03;10.95;;;2.00;;
69327;SDS011;56472;52.114;5.492;2023-03-23T06:17:50;10.57;;;1.77;;
69327;SDS011;56472;52.114;5.492;2023-03-23T06:22:50;8.07;;;2.47;;
69327;SDS011;56472;52.114;5.492;2023-03-23T06:25:26;21.50;;;3.22;;
69327;SDS011;56472;52.114;5.492;2023-03-23T06:27:51;12.32;;;2.42;;
69327;SDS011;56472;52.114;5.492;2023-03-23T06:30:18;14.77;;;3.80;;
69327;SDS011;56472;52.114;5.492;2023-03-23T06:32:44;16.02;;;2.72;;
69327;SDS011;56472;52.114;5.492;2023-03-23T06:35:13;9.82;;;2.78;;
69327;SDS011;56472;52.114;5.492;2023-03-23T06:38:07;12.05;;;2.20;;
69327;SDS011;56472;52.114;5.492;2023-03-23T06:40:44;13.18;;;2.80;;
69327;SDS011;56472;52.114;5.492;2023-03-23T06:43:13;10.77;;;2.20;;
69327;SDS011;56472;52.114;5.492;2023-03-23T06:46:08;12.15;;;2.55;;
69327;SDS011;56472;52.114;5.492;2023-03-23T06:48:40;22.08;;;2.38;;
69327;SDS011;56472;52.114;5.492;2023-03-23T06:51:09;12.40;;;2.83;;
69327;SDS011;56472;52.114;5.492;2023-03-23T06:53:38;8.63;;;2.15;;
69327;SDS011;56472;52.114;5.492;2023-03-23T06:56:07;8.07;;;2.03;;
69327;SDS011;56472;52.114;5.492;2023-03-23T06:58:34;10.55;;;2.22;;
69327;SDS011;56472;52.114;5.492;2023-03-23T07:01:00;12.23;;;2.28;;
69327;SDS011;56472;52.114;5.492;2023-03-23T07:03:31;8.32;;;2.38;;
69327;SDS011;56472;52.114;5.492;2023-03-23T07:05:58;13.23;;;2.63;;
69327;SDS011;56472;52.114;5.492;2023-03-23T07:08:28;14.32;;;2.67;;
69327;SDS011;56472;52.114;5.492;2023-03-23T07:10:54;7.22;;;2.35;;
69327;SDS011;56472;52.114;5.492;2023-03-23T07:13:24;10.43;;;2.75;;
69327;SDS011;56472;52.114;5.492;2023-03-23T07:15:55;4.97;;;2.08;;
69327;SDS011;56472;52.114;5.492;2023-03-23T07:18:22;6.70;;;2.15;;
69327;SDS011;56472;52.114;5.492;2023-03-23T07:20:50;11.05;;;2.55;;
69327;SDS011;56472;52.114;5.492;2023-03-23T07:23:18;12.20;;;2.72;;
69327;SDS011;56472;52.114;5.492;2023-03-23T07:25:56;4.30;;;2.08;;
69327;SDS011;56472;52.114;5.492;2023-03-23T07:28:29;7.50;;;2.47;;
69327;SDS011;56472;52.114;5.492;2023-03-23T07:31:00;6.07;;;1.70;;
69327;SDS011;56472;52.114;5.492;2023-03-23T07:33:26;7.80;;;1.77;;
69327;SDS011;56472;52.114;5.492;2023-03-23T07:35:53;9.52;;;2.65;;
69327;SDS011;56472;52.114;5.492;2023-03-23T07:38:20;4.03;;;1.63;;
69327;SDS011;56472;52.114;5.492;2023-03-23T07:40:48;9.70;;;1.92;;
69327;SDS011;56472;52.114;5.492;2023-03-23T07:43:16;9.48;;;2.30;;
69327;SDS011;56472;52.114;5.492;2023-03-23T07:45:51;7.18;;;1.75;;
69327;SDS011;56472;52.114;5.492;2023-03-23T07:48:18;16.08;;;2.25;;
69327;SDS011;56472;52.114;5.492;2023-03-23T07:50:44;14.20;;;2.22;;
69327;SDS011;56472;52.114;5.492;2023-03-23T07:53:12;11.65;;;2.13;;
69327;SDS011;56472;52.114;5.492;2023-03-23T07:55:40;12.05;;;2.60;;
69327;SDS011;56472;52.114;5.492;2023-03-23T07:58:16;15.07;;;2.90;;
69327;SDS011;56472;52.114;5.492;2023-03-23T08:00:46;7.60;;;2.10;;
69327;SDS011;56472;52.114;5.492;2023-03-23T08:03:14;5.88;;;2.00;;
69327;SDS011;56472;52.114;5.492;2023-03-23T08:06:07;7.40;;;2.35;;
69327;SDS011;56472;52.114;5.492;2023-03-23T08:08:52;7.03;;;2.45;;
69327;SDS011;56472;52.114;5.492;2023-03-23T08:11:38;9.77;;;2.80;;
69327;SDS011;56472;52.114;5.492;2023-03-23T08:14:30;17.00;;;2.55;;
69327;SDS011;56472;52.114;5.492;2023-03-23T08:17:21;9.45;;;2.30;;
69327;SDS011;56472;52.114;5.492;2023-03-23T08:20:06;5.60;;;1.77;;
69327;SDS011;56472;52.114;5.492;2023-03-23T08:23:10;15.63;;;2.40;;
69327;SDS011;56472;52.114;5.492;2023-03-23T08:25:45;9.23;;;2.78;;
69327;SDS011;56472;52.114;5.492;2023-03-23T08:28:18;8.10;;;2.08;;
69327;SDS011;56472;52.114;5.492;2023-03-23T08:31:10;11.13;;;2.47;;
69327;SDS011;56472;52.114;5.492;2023-03-23T08:33:56;7.32;;;2.10;;
69327;SDS011;56472;52.114;5.492;2023-03-23T08:36:35;7.00;;;2.63;;
69327;SDS011;56472;52.114;5.492;2023-03-23T08:39:38;8.02;;;2.60;;
69327;SDS011;56472;52.114;5.492;2023-03-23T08:42:27;6.20;;;2.33;;
69327;SDS011;56472;52.114;5.492;2023-03-23T08:45:15;8.82;;;2.40;;
69327;SDS011;56472;52.114;5.492;2023-03-23T08:47:52;8.43;;;1.80;;
69327;SDS011;56472;52.114;5.492;2023-03-23T08:50:38;9.32;;;2.05;;
69327;SDS011;56472;52.114;5.492;2023-03-23T08:53:33;7.68;;;2.25;;
69327;SDS011;56472;52.114;5.492;2023-03-23T08:56:18;7.88;;;2.70;;
69327;SDS011;56472;52.114;5.492;2023-03-23T08:59:07;7.97;;;2.45;;
69327;SDS011;56472;52.114;5.492;2023-03-23T09:01:39;8.93;;;1.88;;
69327;SDS011;56472;52.114;5.492;2023-03-23T09:04:19;10.77;;;2.50;;
69327;SDS011;56472;52.114;5.492;2023-03-23T09:06:48;8.00;;;2.17;;
69327;SDS011;56472;52.114;5.492;2023-03-23T09:09:15;8.18;;;2.47;;
69327;SDS011;56472;52.114;5.492;2023-03-23T09:11:40;7.93;;;2.13;;
69327;SDS011;56472;52.114;5.492;2023-03-23T09:14:07;8.57;;;2.60;;
69327;SDS011;56472;52.114;5.492;2023-03-23T09:16:33;8.48;;;2.30;;
69327;SDS011;56472;52.114;5.492;2023-03-23T09:18:59;11.55;;;2.70;;
69327;SDS011;56472;52.114;5.492;2023-03-23T09:21:26;9.90;;;2.10;;
69327;SDS011;56472;52.114;5.492;2023-03-23T09:23:54;9.18;;;2.28;;
69327;SDS011;56472;52.114;5.492;2023-03-23T09:26:26;10.00;;;2.25;;
69327;SDS011;56472;52.114;5.492;2023-03-23T09:28:53;13.40;;;2.55;;
69327;SDS011;56472;52.114;5.492;2023-03-23T09:31:19;10.88;;;3.20;;
69327;SDS011;56472;52.114;5.492;2023-03-23T09:33:45;8.85;;;1.90;;
69327;SDS011;56472;52.114;5.492;2023-03-23T09:36:12;11.63;;;2.53;;
69327;SDS011;56472;52.114;5.492;2023-03-23T09:38:40;14.13;;;2.72;;
69327;SDS011;56472;52.114;5.492;2023-03-23T09:47:06;11.05;;;2.45;;
69327;SDS011;56472;52.114;5.492;2023-03-23T09:50:06;5.72;;;2.72;;
69327;SDS011;56472;52.114;5.492;2023-03-23T09:52:56;10.03;;;2.00;;
69327;SDS011;56472;52.114;5.492;2023-03-23T09:55:34;10.20;;;2.35;;
69327;SDS011;56472;52.114;5.492;2023-03-23T10:03:33;14.75;;;2.70;;
69327;SDS011;56472;52.114;5.492;2023-03-23T10:06:04;18.23;;;2.88;;
69327;SDS011;56472;52.114;5.492;2023-03-23T10:08:35;11.90;;;2.38;;
69327;SDS011;56472;52.114;5.492;2023-03-23T10:11:06;8.70;;;2.15;;
69327;SDS011;56472;52.114;5.492;2023-03-23T10:16:23;10.80;;;2.30;;
69327;SDS011;56472;52.114;5.492;2023-03-23T10:21:24;14.50;;;2.42;;
69327;SDS011;56472;52.114;5.492;2023-03-23T10:26:46;14.63;;;2.30;;
69327;SDS011;56472;52.114;5.492;2023-03-23T10:29:38;14.07;;;2.97;;
69327;SDS011;56472;52.114;5.492;2023-03-23T10:37:25;12.32;;;2.05;;
69327;SDS011;56472;52.114;5.492;2023-03-23T10:39:57;15.00;;;2.35;;
69327;SDS011;56472;52.114;5.492;2023-03-23T10:42:25;12.00;;;2.35;;
69327;SDS011;56472;52.114;5.492;2023-03-23T10:44:53;16.65;;;2.58;;
69327;SDS011;56472;52.114;5.492;2023-03-23T10:47:21;15.80;;;2.72;;
69327;SDS011;56472;52.114;5.492;2023-03-23T10:49:58;8.65;;;2.17;;
69327;SDS011;56472;52.114;5.492;2023-03-23T10:55:11;10.05;;;3.10;;
69327;SDS011;56472;52.114;5.492;2023-03-23T10:57:41;13.23;;;2.55;;
69327;SDS011;56472;52.114;5.492;2023-03-23T11:00:22;9.98;;;2.28;;
69327;SDS011;56472;52.114;5.492;2023-03-23T11:03:06;18.85;;;2.28;;
69327;SDS011;56472;52.114;5.492;2023-03-23T11:05:41;13.38;;;2.58;;
69327;SDS011;56472;52.114;5.492;2023-03-23T11:08:16;13.02;;;2.15;;
69327;SDS011;56472;52.114;5.492;2023-03-23T11:10:56;12.60;;;3.45;;
69327;SDS011;56472;52.114;5.492;2023-03-23T11:13:37;13.85;;;2.50;;
69327;SDS011;56472;52.114;5.492;2023-03-23T11:16:24;8.85;;;1.50;;
69327;SDS011;56472;52.114;5.492;2023-03-23T11:18:51;15.57;;;2.85;;
69327;SDS011;56472;52.114;5.492;2023-03-23T11:21:17;6.90;;;1.52;;
69327;SDS011;56472;52.114;5.492;2023-03-23T11:23:51;10.85;;;2.53;;
69327;SDS011;56472;52.114;5.492;2023-03-23T11:26:37;13.00;;;3.22;;
69327;SDS011;56472;52.114;5.492;2023-03-23T11:34:45;13.38;;;2.25;;
69327;SDS011;56472;52.114;5.492;2023-03-23T11:37:14;6.88;;;2.08;;
69327;SDS011;56472;52.114;5.492;2023-03-23T11:40:02;7.50;;;2.10;;
69327;SDS011;56472;52.114;5.492;2023-03-23T11:43:26;15.90;;;2.15;;
69327;SDS011;56472;52.114;5.492;2023-03-23T11:45:50;5.63;;;1.80;;
69327;SDS011;56472;52.114;5.492;2023-03-23T11:48:26;10.07;;;2.25;;
69327;SDS011;56472;52.114;5.492;2023-03-23T11:50:58;11.02;;;1.98;;
69327;SDS011;56472;52.114;5.492;2023-03-23T11:56:24;14.50;;;2.85;;
69327;SDS011;56472;52.114;5.492;2023-03-23T11:58:59;16.23;;;2.45;;
69327;SDS011;56472;52.114;5.492;2023-03-23T12:12:39;13.48;;;2.50;;
69327;SDS011;56472;52.114;5.492;2023-03-23T12:15:53;10.85;;;2.55;;
69327;SDS011;56472;52.114;5.492;2023-03-23T12:42:11;9.48;;;1.90;;
69327;SDS011;56472;52.114;5.492;2023-03-23T12:45:37;7.32;;;1.67;;
69327;SDS011;56472;52.114;5.492;2023-03-23T12:47:42;9.23;;;2.30;;
69327;SDS011;56472;52.114;5.492;2023-03-23T12:53:11;8.73;;;1.95;;
69327;SDS011;56472;52.114;5.492;2023-03-23T12:55:50;3.63;;;1.40;;
69327;SDS011;56472;52.114;5.492;2023-03-23T12:58:34;7.88;;;1.70;;
69327;SDS011;56472;52.114;5.492;2023-03-23T13:06:38;6.10;;;2.70;;
69327;SDS011;56472;52.114;5.492;2023-03-23T13:11:45;8.95;;;1.85;;
69327;SDS011;56472;52.114;5.492;2023-03-23T13:16:44;7.80;;;2.08;;
69327;SDS011;56472;52.114;5.492;2023-03-23T13:22:33;7.35;;;1.83;;
69327;SDS011;56472;52.114;5.492;2023-03-23T13:28:00;6.07;;;2.08;;
69327;SDS011;56472;52.114;5.492;2023-03-23T13:30:27;5.93;;;1.67;;
69327;SDS011;56472;52.114;5.492;2023-03-23T13:33:03;7.07;;;1.73;;
69327;SDS011;56472;52.114;5.492;2023-03-23T13:35:36;9.43;;;2.67;;
69327;SDS011;56472;52.114;5.492;2023-03-23T13:40:44;9.10;;;2.25;;
69327;SDS011;56472;52.114;5.492;2023-03-23T13:43:11;13.85;;;2.53;;
69327;SDS011;56472;52.114;5.492;2023-03-23T13:45:45;9.25;;;2.25;;
69327;SDS011;56472;52.114;5.492;2023-03-23T13:50:48;10.23;;;2.00;;
69327;SDS011;56472;52.114;5.492;2023-03-23T13:58:31;10.65;;;1.98;;
69327;SDS011;56472;52.114;5.492;2023-03-23T14:03:45;5.22;;;1.70;;
69327;SDS011;56472;52.114;5.492;2023-03-23T14:06:21;4.15;;;1.27;;
69327;SDS011;56472;52.114;5.492;2023-03-23T14:09:30;14.70;;;3.20;;
69327;SDS011;56472;52.114;5.492;2023-03-23T14:12:03;9.25;;;2.53;;
69327;SDS011;56472;52.114;5.492;2023-03-23T14:14:39;8.30;;;2.30;;
69327;SDS011;56472;52.114;5.492;2023-03-23T14:17:11;11.00;;;2.00;;
69327;SDS011;56472;52.114;5.492;2023-03-23T14:19:40;6.07;;;2.50;;
69327;SDS011;56472;52.114;5.492;2023-03-23T14:22:25;13.00;;;2.30;;
69327;SDS011;56472;52.114;5.492;2023-03-23T14:25:00;7.53;;;2.10;;
69327;SDS011;56472;52.114;5.492;2023-03-23T14:27:38;9.57;;;1.90;;
69327;SDS011;56472;52.114;5.492;2023-03-23T14:30:07;5.57;;;1.60;;
69327;SDS011;56472;52.114;5.492;2023-03-23T14:32:40;7.10;;;1.80;;
69327;SDS011;56472;52.114;5.492;2023-03-23T14:37:38;3.55;;;1.60;;
69327;SDS011;56472;52.114;5.492;2023-03-23T14:40:04;6.20;;;2.10;;
69327;SDS011;56472;52.114;5.492;2023-03-23T14:42:34;4.85;;;1.70;;
69327;SDS011;56472;52.114;5.492;2023-03-23T14:45:01;5.93;;;2.05;;
69327;SDS011;56472;52.114;5.492;2023-03-23T14:47:34;8.95;;;2.15;;
69327;SDS011;56472;52.114;5.492;2023-03-23T14:50:06;9.52;;;1.83;;
69327;SDS011;56472;52.114;5.492;2023-03-23T14:52:47;8.63;;;2.43;;
69327;SDS011;56472;52.114;5.492;2023-03-23T14:55:15;6.97;;;1.88;;
69327;SDS011;56472;52.114;5.492;2023-03-23T14:57:43;5.43;;;2.22;;
69327;SDS011;56472;52.114;5.492;2023-03-23T15:02:52;11.57;;;2.55;;
69327;SDS011;56472;52.114;5.492;2023-03-23T15:05:22;4.40;;;1.70;;
69327;SDS011;56472;52.114;5.492;2023-03-23T15:07:58;7.18;;;2.30;;
69327;SDS011;56472;52.114;5.492;2023-03-23T15:10:31;8.35;;;2.17;;
69327;SDS011;56472;52.114;5.492;2023-03-23T15:12:57;7.63;;;1.95;;
69327;SDS011;56472;52.114;5.492;2023-03-23T15:15:34;6.47;;;2.22;;
69327;SDS011;56472;52.114;5.492;2023-03-23T15:18:01;11.25;;;2.28;;
69327;SDS011;56472;52.114;5.492;2023-03-23T15:23:21;11.73;;;2.67;;
69327;SDS011;56472;52.114;5.492;2023-03-23T15:25:52;11.82;;;2.35;;
69327;SDS011;56472;52.114;5.492;2023-03-23T15:28:21;9.30;;;2.25;;
69327;SDS011;56472;52.114;5.492;2023-03-23T15:30:54;8.13;;;1.88;;
69327;SDS011;56472;52.114;5.492;2023-03-23T15:33:23;10.10;;;2.47;;
69327;SDS011;56472;52.114;5.492;2023-03-23T15:35:53;8.65;;;2.35;;
69327;SDS011;56472;52.114;5.492;2023-03-23T15:38:24;10.70;;;2.78;;
69327;SDS011;56472;52.114;5.492;2023-03-23T15:40:55;9.55;;;2.28;;
69327;SDS011;56472;52.114;5.492;2023-03-23T15:48:46;13.68;;;2.35;;
69327;SDS011;56472;52.114;5.492;2023-03-23T15:51:19;7.00;;;1.98;;
69327;SDS011;56472;52.114;5.492;2023-03-23T15:53:47;12.20;;;2.85;;
69327;SDS011;56472;52.114;5.492;2023-03-23T15:56:15;9.60;;;2.42;;
69327;SDS011;56472;52.114;5.492;2023-03-23T15:58:41;11.90;;;2.30;;
69327;SDS011;56472;52.114;5.492;2023-03-23T16:01:11;10.88;;;2.45;;
69327;SDS011;56472;52.114;5.492;2023-03-23T16:06:24;9.88;;;2.28;;
69327;SDS011;56472;52.114;5.492;2023-03-23T16:08:53;9.93;;;2.30;;
69327;SDS011;56472;52.114;5.492;2023-03-23T16:11:22;10.48;;;2.30;;
69327;SDS011;56472;52.114;5.492;2023-03-23T16:13:51;9.25;;;2.53;;
69327;SDS011;56472;52.114;5.492;2023-03-23T16:16:21;10.15;;;2.60;;
69327;SDS011;56472;52.114;5.492;2023-03-23T16:18:48;9.10;;;2.30;;
69327;SDS011;56472;52.114;5.492;2023-03-23T16:21:16;12.13;;;2.55;;
69327;SDS011;56472;52.114;5.492;2023-03-23T16:23:42;11.35;;;2.30;;
69327;SDS011;56472;52.114;5.492;2023-03-23T16:26:12;16.95;;;2.55;;
69327;SDS011;56472;52.114;5.492;2023-03-23T16:28:40;9.32;;;2.55;;
69327;SDS011;56472;52.114;5.492;2023-03-23T16:31:08;12.95;;;2.38;;
69327;SDS011;56472;52.114;5.492;2023-03-23T16:33:36;11.90;;;2.30;;
69327;SDS011;56472;52.114;5.492;2023-03-23T16:36:03;14.70;;;2.75;;
69327;SDS011;56472;52.114;5.492;2023-03-23T16:38:30;11.23;;;2.25;;
69327;SDS011;56472;52.114;5.492;2023-03-23T16:40:57;12.23;;;2.60;;
69327;SDS011;56472;52.114;5.492;2023-03-23T16:43:24;15.68;;;3.00;;
69327;SDS011;56472;52.114;5.492;2023-03-23T16:45:53;10.18;;;2.55;;
69327;SDS011;56472;52.114;5.492;2023-03-23T16:48:21;12.65;;;3.10;;
69327;SDS011;56472;52.114;5.492;2023-03-23T16:50:49;11.00;;;2.92;;
69327;SDS011;56472;52.114;5.492;2023-03-23T16:53:16;12.68;;;2.67;;
69327;SDS011;56472;52.114;5.492;2023-03-23T16:55:44;9.20;;;2.75;;
69327;SDS011;56472;52.114;5.492;2023-03-23T16:58:14;18.23;;;3.75;;
69327;SDS011;56472;52.114;5.492;2023-03-23T17:00:47;10.63;;;2.90;;
69327;SDS011;56472;52.114;5.492;2023-03-23T17:03:16;14.77;;;3.10;;
69327;SDS011;56472;52.114;5.492;2023-03-23T17:05:44;7.00;;;2.42;;
69327;SDS011;56472;52.114;5.492;2023-03-23T17:08:12;12.85;;;2.60;;
69327;SDS011;56472;52.114;5.492;2023-03-23T17:10:39;10.00;;;2.60;;
69327;SDS011;56472;52.114;5.492;2023-03-23T17:13:07;11.57;;;3.08;;
69327;SDS011;56472;52.114;5.492;2023-03-23T17:15:38;7.80;;;2.65;;
69327;SDS011;56472;52.114;5.492;2023-03-23T17:18:08;17.65;;;3.53;;
69327;SDS011;56472;52.114;5.492;2023-03-23T17:20:35;14.55;;;2.30;;
69327;SDS011;56472;52.114;5.492;2023-03-23T17:23:02;11.43;;;2.63;;
69327;SDS011;56472;52.114;5.492;2023-03-23T17:25:30;6.47;;;2.60;;
69327;SDS011;56472;52.114;5.492;2023-03-23T17:27:57;15.63;;;2.85;;
69327;SDS011;56472;52.114;5.492;2023-03-23T17:30:31;10.10;;;2.22;;
69327;SDS011;56472;52.114;5.492;2023-03-23T17:32:58;7.85;;;2.78;;
69327;SDS011;56472;52.114;5.492;2023-03-23T17:35:25;8.75;;;2.70;;
69327;SDS011;56472;52.114;5.492;2023-03-23T17:37:52;8.05;;;2.13;;
69327;SDS011;56472;52.114;5.492;2023-03-23T17:40:19;6.68;;;1.80;;